sensor_id;sensor_type;location;lat;lon;timestamp;temperature;humidity
69543;SHT31;56762;49.494;11.768;2024-03-06T00:01:42;9.10;84.06
69543;SHT31;56762;49.494;11.768;2024-03-06T00:04:10;9.16;86.17
69543;SHT31;56762;49.494;11.768;2024-03-06T00:06:41;9.15;85.56
69543;SHT31;56762;49.494;11.768;2024-03-06T00:09:08;9.23;85.22
69543;SHT31;56762;49.494;11.768;2024-03-06T00:11:36;9.28;85.17
69543;SHT31;56762;49.494;11.768;2024-03-06T00:14:04;9.37;84.60
69543;SHT31;56762;49.494;11.768;2024-03-06T00:16:33;9.40;84.59
69543;SHT31;56762;49.494;11.768;2024-03-06T00:19:01;9.40;84.38
69543;SHT31;56762;49.494;11.768;2024-03-06T00:21:29;9.44;84.39
69543;SHT31;56762;49.494;11.768;2024-03-06T00:23:58;9.46;84.20
69543;SHT31;56762;49.494;11.768;2024-03-06T00:26:26;9.51;84.77
69543;SHT31;56762;49.494;11.768;2024-03-06T00:28:54;9.46;84.59
69543;SHT31;56762;49.494;11.768;2024-03-06T00:31:22;9.48;84.41
69543;SHT31;56762;49.494;11.768;2024-03-06T00:33:50;9.52;84.08
69543;SHT31;56762;49.494;11.768;2024-03-06T00:36:17;9.52;84.21
69543;SHT31;56762;49.494;11.768;2024-03-06T00:38:45;9.54;84.01
69543;SHT31;56762;49.494;11.768;2024-03-06T00:41:15;9.57;83.95
69543;SHT31;56762;49.494;11.768;2024-03-06T00:43:43;9.52;83.96
69543;SHT31;56762;49.494;11.768;2024-03-06T00:46:12;9.54;83.98
69543;SHT31;56762;49.494;11.768;2024-03-06T00:48:39;9.55;84.15
69543;SHT31;56762;49.494;11.768;2024-03-06T00:51:07;9.52;83.90
69543;SHT31;56762;49.494;11.768;2024-03-06T00:53:36;9.54;84.09
69543;SHT31;56762;49.494;11.768;2024-03-06T00:56:04;9.52;84.03
69543;SHT31;56762;49.494;11.768;2024-03-06T00:58:34;9.57;83.94
69543;SHT31;56762;49.494;11.768;2024-03-06T01:01:02;9.57;83.93
69543;SHT31;56762;49.494;11.768;2024-03-06T01:03:31;9.54;83.97
69543;SHT31;56762;49.494;11.768;2024-03-06T01:05:59;9.54;84.15
69543;SHT31;56762;49.494;11.768;2024-03-06T01:08:27;9.51;84.18
69543;SHT31;56762;49.494;11.768;2024-03-06T01:10:55;9.50;83.97
69543;SHT31;56762;49.494;11.768;2024-03-06T01:13:23;9.51;84.00
69543;SHT31;56762;49.494;11.768;2024-03-06T01:15:53;9.41;83.82
69543;SHT31;56762;49.494;11.768;2024-03-06T01:18:20;9.36;84.37
69543;SHT31;56762;49.494;11.768;2024-03-06T01:20:49;9.28;84.52
69543;SHT31;56762;49.494;11.768;2024-03-06T01:23:16;9.28;84.83
69543;SHT31;56762;49.494;11.768;2024-03-06T01:25:44;9.33;84.38
69543;SHT31;56762;49.494;11.768;2024-03-06T01:28:12;9.36;84.42
69543;SHT31;56762;49.494;11.768;2024-03-06T01:30:41;9.34;84.47
69543;SHT31;56762;49.494;11.768;2024-03-06T01:33:10;9.34;84.48
69543;SHT31;56762;49.494;11.768;2024-03-06T01:35:37;9.40;84.37
69543;SHT31;56762;49.494;11.768;2024-03-06T01:38:05;9.43;84.55
69543;SHT31;56762;49.494;11.768;2024-03-06T01:40:34;9.38;84.29
69543;SHT31;56762;49.494;11.768;2024-03-06T01:43:02;9.36;83.43
69543;SHT31;56762;49.494;11.768;2024-03-06T01:45:30;9.24;84.07
69543;SHT31;56762;49.494;11.768;2024-03-06T01:47:59;9.17;84.07
69543;SHT31;56762;49.494;11.768;2024-03-06T01:50:28;9.07;84.45
69543;SHT31;56762;49.494;11.768;2024-03-06T01:52:56;9.00;84.78
69543;SHT31;56762;49.494;11.768;2024-03-06T01:55:24;9.05;85.12
69543;SHT31;56762;49.494;11.768;2024-03-06T01:57:53;9.13;84.96
69543;SHT31;56762;49.494;11.768;2024-03-06T02:00:21;9.00;84.55
69543;SHT31;56762;49.494;11.768;2024-03-06T02:02:49;9.06;85.74
69543;SHT31;56762;49.494;11.768;2024-03-06T02:05:17;8.92;83.66
69543;SHT31;56762;49.494;11.768;2024-03-06T02:07:47;8.83;85.51
69543;SHT31;56762;49.494;11.768;2024-03-06T02:10:16;8.69;84.51
69543;SHT31;56762;49.494;11.768;2024-03-06T02:12:44;8.78;86.60
69543;SHT31;56762;49.494;11.768;2024-03-06T02:15:12;8.82;84.94
69543;SHT31;56762;49.494;11.768;2024-03-06T02:17:41;8.78;86.09
69543;SHT31;56762;49.494;11.768;2024-03-06T02:20:11;8.92;85.74
69543;SHT31;56762;49.494;11.768;2024-03-06T02:22:42;8.96;84.92
69543;SHT31;56762;49.494;11.768;2024-03-06T02:25:11;8.82;84.04
69543;SHT31;56762;49.494;11.768;2024-03-06T02:27:39;8.61;83.54
69543;SHT31;56762;49.494;11.768;2024-03-06T02:30:08;8.41;86.77
69543;SHT31;56762;49.494;11.768;2024-03-06T02:32:36;8.42;86.31
69543;SHT31;56762;49.494;11.768;2024-03-06T02:35:04;8.31;84.33
69543;SHT31;56762;49.494;11.768;2024-03-06T02:37:35;8.24;86.32
69543;SHT31;56762;49.494;11.768;2024-03-06T02:40:06;8.47;86.90
69543;SHT31;56762;49.494;11.768;2024-03-06T02:42:36;8.62;86.44
69543;SHT31;56762;49.494;11.768;2024-03-06T02:45:06;8.73;86.30
69543;SHT31;56762;49.494;11.768;2024-03-06T02:47:34;8.87;85.51
69543;SHT31;56762;49.494;11.768;2024-03-06T02:50:02;8.97;85.00
69543;SHT31;56762;49.494;11.768;2024-03-06T02:52:31;8.99;85.27
69543;SHT31;56762;49.494;11.768;2024-03-06T02:54:59;9.05;84.96
69543;SHT31;56762;49.494;11.768;2024-03-06T02:57:29;9.05;84.52
69543;SHT31;56762;49.494;11.768;2024-03-06T02:59:57;9.03;85.07
69543;SHT31;56762;49.494;11.768;2024-03-06T03:02:25;9.09;84.75
69543;SHT31;56762;49.494;11.768;2024-03-06T03:04:53;9.13;84.05
69543;SHT31;56762;49.494;11.768;2024-03-06T03:07:21;9.16;84.17
69543;SHT31;56762;49.494;11.768;2024-03-06T03:09:50;9.00;84.30
69543;SHT31;56762;49.494;11.768;2024-03-06T03:12:17;9.05;84.41
69543;SHT31;56762;49.494;11.768;2024-03-06T03:14:46;9.10;84.63
69543;SHT31;56762;49.494;11.768;2024-03-06T03:17:14;9.13;84.45
69543;SHT31;56762;49.494;11.768;2024-03-06T03:19:42;8.96;83.40
69543;SHT31;56762;49.494;11.768;2024-03-06T03:22:10;8.75;83.06
69543;SHT31;56762;49.494;11.768;2024-03-06T03:24:38;8.71;84.28
69543;SHT31;56762;49.494;11.768;2024-03-06T03:27:05;8.54;84.33
69543;SHT31;56762;49.494;11.768;2024-03-06T03:29:34;8.23;83.39
69543;SHT31;56762;49.494;11.768;2024-03-06T03:32:03;8.13;85.68
69543;SHT31;56762;49.494;11.768;2024-03-06T03:34:33;8.30;87.51
69543;SHT31;56762;49.494;11.768;2024-03-06T03:37:01;8.59;85.76
69543;SHT31;56762;49.494;11.768;2024-03-06T03:39:29;8.76;84.38
69543;SHT31;56762;49.494;11.768;2024-03-06T03:41:56;8.90;84.90
69543;SHT31;56762;49.494;11.768;2024-03-06T03:44:24;8.90;84.92
69543;SHT31;56762;49.494;11.768;2024-03-06T03:46:52;8.80;85.14
69543;SHT31;56762;49.494;11.768;2024-03-06T03:49:21;8.90;84.27
69543;SHT31;56762;49.494;11.768;2024-03-06T03:51:49;8.96;84.93
69543;SHT31;56762;49.494;11.768;2024-03-06T03:54:17;8.86;84.78
69543;SHT31;56762;49.494;11.768;2024-03-06T03:56:44;8.87;84.73
69543;SHT31;56762;49.494;11.768;2024-03-06T03:59:12;8.68;85.43
69543;SHT31;56762;49.494;11.768;2024-03-06T04:01:40;8.41;82.81
69543;SHT31;56762;49.494;11.768;2024-03-06T04:04:08;8.34;86.71
69543;SHT31;56762;49.494;11.768;2024-03-06T04:06:37;8.52;85.70
69543;SHT31;56762;49.494;11.768;2024-03-06T04:09:05;8.64;84.92
69543;SHT31;56762;49.494;11.768;2024-03-06T04:11:36;8.66;85.43
69543;SHT31;56762;49.494;11.768;2024-03-06T04:14:04;8.72;83.72
69543;SHT31;56762;49.494;11.768;2024-03-06T04:16:33;8.65;85.15
69543;SHT31;56762;49.494;11.768;2024-03-06T04:19:01;8.61;83.13
69543;SHT31;56762;49.494;11.768;2024-03-06T04:21:30;8.66;83.37
69543;SHT31;56762;49.494;11.768;2024-03-06T04:23:59;8.66;84.63
69543;SHT31;56762;49.494;11.768;2024-03-06T04:26:27;8.69;83.69
69543;SHT31;56762;49.494;11.768;2024-03-06T04:28:55;8.54;82.88
69543;SHT31;56762;49.494;11.768;2024-03-06T04:31:22;8.51;82.45
69543;SHT31;56762;49.494;11.768;2024-03-06T04:33:50;8.48;84.54
69543;SHT31;56762;49.494;11.768;2024-03-06T04:36:18;8.76;84.56
69543;SHT31;56762;49.494;11.768;2024-03-06T04:38:46;8.85;83.95
69543;SHT31;56762;49.494;11.768;2024-03-06T04:41:18;8.95;84.05
69543;SHT31;56762;49.494;11.768;2024-03-06T04:43:46;8.86;83.88
69543;SHT31;56762;49.494;11.768;2024-03-06T04:46:14;8.96;83.58
69543;SHT31;56762;49.494;11.768;2024-03-06T04:48:41;9.03;83.90
69543;SHT31;56762;49.494;11.768;2024-03-06T04:51:09;9.05;83.34
69543;SHT31;56762;49.494;11.768;2024-03-06T04:53:37;8.99;81.98
69543;SHT31;56762;49.494;11.768;2024-03-06T04:56:05;8.92;83.72
69543;SHT31;56762;49.494;11.768;2024-03-06T04:58:35;8.96;83.75
69543;SHT31;56762;49.494;11.768;2024-03-06T05:01:03;8.86;81.67
69543;SHT31;56762;49.494;11.768;2024-03-06T05:03:31;8.92;83.87
69543;SHT31;56762;49.494;11.768;2024-03-06T05:06:16;8.90;81.47
69543;SHT31;56762;49.494;11.768;2024-03-06T05:09:02;8.89;83.42
69543;SHT31;56762;49.494;11.768;2024-03-06T05:11:48;9.02;83.31
69543;SHT31;56762;49.494;11.768;2024-03-06T05:14:36;8.68;80.99
69543;SHT31;56762;49.494;11.768;2024-03-06T05:17:22;8.80;83.86
69543;SHT31;56762;49.494;11.768;2024-03-06T05:20:08;8.87;83.96
69543;SHT31;56762;49.494;11.768;2024-03-06T05:22:53;9.00;83.56
69543;SHT31;56762;49.494;11.768;2024-03-06T05:25:38;8.93;82.28
69543;SHT31;56762;49.494;11.768;2024-03-06T05:28:24;8.93;81.64
69543;SHT31;56762;49.494;11.768;2024-03-06T05:31:17;8.79;83.35
69543;SHT31;56762;49.494;11.768;2024-03-06T05:34:03;8.78;83.50
69543;SHT31;56762;49.494;11.768;2024-03-06T05:36:49;8.59;83.32
69543;SHT31;56762;49.494;11.768;2024-03-06T05:39:35;8.59;82.41
69543;SHT31;56762;49.494;11.768;2024-03-06T05:42:21;8.64;84.22
69543;SHT31;56762;49.494;11.768;2024-03-06T05:45:07;8.59;84.80
69543;SHT31;56762;49.494;11.768;2024-03-06T05:47:55;8.31;82.89
69543;SHT31;56762;49.494;11.768;2024-03-06T05:50:41;8.30;85.17
69543;SHT31;56762;49.494;11.768;2024-03-06T05:53:26;8.16;83.53
69543;SHT31;56762;49.494;11.768;2024-03-06T05:56:12;7.93;83.87
69543;SHT31;56762;49.494;11.768;2024-03-06T05:58:57;7.94;84.94
69543;SHT31;56762;49.494;11.768;2024-03-06T06:01:28;7.83;83.75
69543;SHT31;56762;49.494;11.768;2024-03-06T06:03:57;7.70;83.91
69543;SHT31;56762;49.494;11.768;2024-03-06T06:06:30;7.96;85.98
69543;SHT31;56762;49.494;11.768;2024-03-06T06:08:58;7.90;83.61
69543;SHT31;56762;49.494;11.768;2024-03-06T06:11:26;8.13;85.78
69543;SHT31;56762;49.494;11.768;2024-03-06T06:13:54;8.30;85.63
69543;SHT31;56762;49.494;11.768;2024-03-06T06:16:22;8.40;84.37
69543;SHT31;56762;49.494;11.768;2024-03-06T06:18:49;8.27;85.34
69543;SHT31;56762;49.494;11.768;2024-03-06T06:21:19;8.45;85.36
69543;SHT31;56762;49.494;11.768;2024-03-06T06:23:46;8.66;84.45
69543;SHT31;56762;49.494;11.768;2024-03-06T06:26:14;8.64;81.98
69543;SHT31;56762;49.494;11.768;2024-03-06T06:28:42;8.58;80.64
69543;SHT31;56762;49.494;11.768;2024-03-06T06:31:10;8.24;84.23
69543;SHT31;56762;49.494;11.768;2024-03-06T06:33:37;7.83;83.03
69543;SHT31;56762;49.494;11.768;2024-03-06T06:36:06;7.58;84.07
69543;SHT31;56762;49.494;11.768;2024-03-06T06:38:35;7.72;87.01
69543;SHT31;56762;49.494;11.768;2024-03-06T06:41:03;7.45;83.93
69543;SHT31;56762;49.494;11.768;2024-03-06T06:43:31;7.46;86.10
69543;SHT31;56762;49.494;11.768;2024-03-06T06:45:59;7.59;86.32
69543;SHT31;56762;49.494;11.768;2024-03-06T06:48:31;7.90;85.39
69543;SHT31;56762;49.494;11.768;2024-03-06T06:51:00;8.18;83.21
69543;SHT31;56762;49.494;11.768;2024-03-06T06:53:29;8.42;84.23
69543;SHT31;56762;49.494;11.768;2024-03-06T06:55:58;8.44;81.80
69543;SHT31;56762;49.494;11.768;2024-03-06T06:58:26;8.54;84.13
69543;SHT31;56762;49.494;11.768;2024-03-06T07:00:54;8.68;82.61
69543;SHT31;56762;49.494;11.768;2024-03-06T07:03:22;8.59;84.05
69543;SHT31;56762;49.494;11.768;2024-03-06T07:05:56;8.68;81.26
69543;SHT31;56762;49.494;11.768;2024-03-06T07:08:24;8.83;83.60
69543;SHT31;56762;49.494;11.768;2024-03-06T07:10:51;8.90;82.79
69543;SHT31;56762;49.494;11.768;2024-03-06T07:13:23;9.05;82.41
69543;SHT31;56762;49.494;11.768;2024-03-06T07:15:50;8.95;80.46
69543;SHT31;56762;49.494;11.768;2024-03-06T07:18:19;8.87;81.37
69543;SHT31;56762;49.494;11.768;2024-03-06T07:20:46;8.76;80.66
69543;SHT31;56762;49.494;11.768;2024-03-06T07:23:15;8.80;82.93
69543;SHT31;56762;49.494;11.768;2024-03-06T07:25:42;8.96;82.51
69543;SHT31;56762;49.494;11.768;2024-03-06T07:28:10;9.07;82.54
69543;SHT31;56762;49.494;11.768;2024-03-06T07:30:39;9.09;81.56
69543;SHT31;56762;49.494;11.768;2024-03-06T07:33:07;9.12;81.82
69543;SHT31;56762;49.494;11.768;2024-03-06T07:35:35;9.19;81.88
69543;SHT31;56762;49.494;11.768;2024-03-06T07:38:04;9.10;80.21
69543;SHT31;56762;49.494;11.768;2024-03-06T07:40:31;9.15;81.84
69543;SHT31;56762;49.494;11.768;2024-03-06T07:42:59;9.26;81.34
69543;SHT31;56762;49.494;11.768;2024-03-06T07:45:28;9.15;81.39
69543;SHT31;56762;49.494;11.768;2024-03-06T07:47:58;9.06;81.64
69543;SHT31;56762;49.494;11.768;2024-03-06T07:50:26;9.09;81.85
69543;SHT31;56762;49.494;11.768;2024-03-06T07:52:54;9.05;81.87
69543;SHT31;56762;49.494;11.768;2024-03-06T07:55:22;9.20;80.55
69543;SHT31;56762;49.494;11.768;2024-03-06T07:57:50;9.06;81.76
69543;SHT31;56762;49.494;11.768;2024-03-06T08:00:18;8.96;80.36
69543;SHT31;56762;49.494;11.768;2024-03-06T08:02:47;8.95;79.60
69543;SHT31;56762;49.494;11.768;2024-03-06T08:05:18;8.86;80.68
69543;SHT31;56762;49.494;11.768;2024-03-06T08:07:47;8.96;81.79
69543;SHT31;56762;49.494;11.768;2024-03-06T08:10:15;9.05;82.17
69543;SHT31;56762;49.494;11.768;2024-03-06T08:12:45;9.13;80.99
69543;SHT31;56762;49.494;11.768;2024-03-06T08:15:14;9.23;81.32
69543;SHT31;56762;49.494;11.768;2024-03-06T08:17:43;9.27;81.25
69543;SHT31;56762;49.494;11.768;2024-03-06T08:20:12;9.30;81.13
69543;SHT31;56762;49.494;11.768;2024-03-06T08:22:42;9.36;80.55
69543;SHT31;56762;49.494;11.768;2024-03-06T08:25:11;9.36;80.32
69543;SHT31;56762;49.494;11.768;2024-03-06T08:27:40;9.43;80.77
69543;SHT31;56762;49.494;11.768;2024-03-06T08:30:09;9.52;80.23
69543;SHT31;56762;49.494;11.768;2024-03-06T08:32:37;9.46;78.74
69543;SHT31;56762;49.494;11.768;2024-03-06T08:35:08;9.54;80.50
69543;SHT31;56762;49.494;11.768;2024-03-06T08:37:38;9.55;80.07
69543;SHT31;56762;49.494;11.768;2024-03-06T08:40:09;9.50;80.69
69543;SHT31;56762;49.494;11.768;2024-03-06T08:42:41;9.62;80.14
69543;SHT31;56762;49.494;11.768;2024-03-06T08:45:09;9.50;79.44
69543;SHT31;56762;49.494;11.768;2024-03-06T08:47:37;9.31;78.86
69543;SHT31;56762;49.494;11.768;2024-03-06T08:50:06;9.31;81.26
69543;SHT31;56762;49.494;11.768;2024-03-06T08:52:34;9.55;80.28
69543;SHT31;56762;49.494;11.768;2024-03-06T08:55:03;9.62;79.27
69543;SHT31;56762;49.494;11.768;2024-03-06T08:57:34;9.68;79.41
69543;SHT31;56762;49.494;11.768;2024-03-06T09:00:02;9.65;80.19
69543;SHT31;56762;49.494;11.768;2024-03-06T09:02:30;9.62;78.46
69543;SHT31;56762;49.494;11.768;2024-03-06T09:04:58;9.78;79.42
69543;SHT31;56762;49.494;11.768;2024-03-06T09:07:26;9.74;79.43
69543;SHT31;56762;49.494;11.768;2024-03-06T09:09:54;9.51;78.47
69543;SHT31;56762;49.494;11.768;2024-03-06T09:12:22;9.59;79.29
69543;SHT31;56762;49.494;11.768;2024-03-06T09:14:51;9.43;80.72
69543;SHT31;56762;49.494;11.768;2024-03-06T09:17:19;9.58;80.25
69543;SHT31;56762;49.494;11.768;2024-03-06T09:19:46;9.64;79.44
69543;SHT31;56762;49.494;11.768;2024-03-06T09:22:33;9.67;77.73
69543;SHT31;56762;49.494;11.768;2024-03-06T09:25:01;9.70;79.22
69543;SHT31;56762;49.494;11.768;2024-03-06T09:27:29;9.81;79.59
69543;SHT31;56762;49.494;11.768;2024-03-06T09:29:58;9.67;78.28
69543;SHT31;56762;49.494;11.768;2024-03-06T09:32:26;9.52;78.06
69543;SHT31;56762;49.494;11.768;2024-03-06T09:34:54;9.38;78.02
69543;SHT31;56762;49.494;11.768;2024-03-06T09:37:22;9.13;78.51
69543;SHT31;56762;49.494;11.768;2024-03-06T09:39:50;8.83;78.55
69543;SHT31;56762;49.494;11.768;2024-03-06T09:42:17;8.78;79.30
69543;SHT31;56762;49.494;11.768;2024-03-06T09:44:45;8.71;79.36
69543;SHT31;56762;49.494;11.768;2024-03-06T09:47:20;8.61;79.33
69543;SHT31;56762;49.494;11.768;2024-03-06T09:49:51;8.61;79.75
69543;SHT31;56762;49.494;11.768;2024-03-06T09:52:20;8.59;80.16
69543;SHT31;56762;49.494;11.768;2024-03-06T09:54:48;8.62;79.53
69543;SHT31;56762;49.494;11.768;2024-03-06T09:57:16;8.66;78.55
69543;SHT31;56762;49.494;11.768;2024-03-06T09:59:44;8.86;78.52
69543;SHT31;56762;49.494;11.768;2024-03-06T10:02:23;8.87;78.25
69543;SHT31;56762;49.494;11.768;2024-03-06T10:04:52;8.83;77.04
69543;SHT31;56762;49.494;11.768;2024-03-06T10:07:20;8.85;75.06
69543;SHT31;56762;49.494;11.768;2024-03-06T10:09:48;8.97;75.81
69543;SHT31;56762;49.494;11.768;2024-03-06T10:12:17;9.09;75.40
69543;SHT31;56762;49.494;11.768;2024-03-06T10:14:51;9.10;75.30
69543;SHT31;56762;49.494;11.768;2024-03-06T10:17:21;9.16;75.45
69543;SHT31;56762;49.494;11.768;2024-03-06T10:19:50;9.22;73.78
69543;SHT31;56762;49.494;11.768;2024-03-06T10:22:19;9.16;74.29
69543;SHT31;56762;49.494;11.768;2024-03-06T10:24:47;9.07;73.55
69543;SHT31;56762;49.494;11.768;2024-03-06T10:27:15;9.07;73.94
69543;SHT31;56762;49.494;11.768;2024-03-06T10:29:44;9.02;73.76
69543;SHT31;56762;49.494;11.768;2024-03-06T10:32:16;8.90;73.64
69543;SHT31;56762;49.494;11.768;2024-03-06T10:34:46;8.90;73.99
69543;SHT31;56762;49.494;11.768;2024-03-06T10:37:14;8.92;74.37
69543;SHT31;56762;49.494;11.768;2024-03-06T10:39:43;9.03;74.16
69543;SHT31;56762;49.494;11.768;2024-03-06T10:42:13;9.09;74.53
69543;SHT31;56762;49.494;11.768;2024-03-06T10:44:48;9.22;74.31
69543;SHT31;56762;49.494;11.768;2024-03-06T10:47:18;9.30;73.50
69543;SHT31;56762;49.494;11.768;2024-03-06T10:49:48;9.38;74.16
69543;SHT31;56762;49.494;11.768;2024-03-06T10:52:18;9.34;73.71
69543;SHT31;56762;49.494;11.768;2024-03-06T10:54:48;9.38;73.60
69543;SHT31;56762;49.494;11.768;2024-03-06T10:57:16;9.36;73.48
69543;SHT31;56762;49.494;11.768;2024-03-06T10:59:46;9.43;73.23
69543;SHT31;56762;49.494;11.768;2024-03-06T11:02:15;9.47;73.07
69543;SHT31;56762;49.494;11.768;2024-03-06T11:04:44;9.40;71.94
69543;SHT31;56762;49.494;11.768;2024-03-06T11:07:14;9.43;72.57
69543;SHT31;56762;49.494;11.768;2024-03-06T11:09:41;9.36;71.48
69543;SHT31;56762;49.494;11.768;2024-03-06T11:12:10;9.52;71.80
69543;SHT31;56762;49.494;11.768;2024-03-06T11:14:38;9.54;71.31
69543;SHT31;56762;49.494;11.768;2024-03-06T11:17:08;9.62;71.41
69543;SHT31;56762;49.494;11.768;2024-03-06T11:23:03;9.74;70.50
69543;SHT31;56762;49.494;11.768;2024-03-06T11:25:56;9.73;69.83
69543;SHT31;56762;49.494;11.768;2024-03-06T11:28:27;9.73;70.48
69543;SHT31;56762;49.494;11.768;2024-03-06T11:30:56;9.77;70.79
69543;SHT31;56762;49.494;11.768;2024-03-06T11:33:28;9.75;70.62
69543;SHT31;56762;49.494;11.768;2024-03-06T11:36:18;9.64;69.74
69543;SHT31;56762;49.494;11.768;2024-03-06T11:38:56;9.64;70.80
69543;SHT31;56762;49.494;11.768;2024-03-06T11:41:26;9.62;70.91
69543;SHT31;56762;49.494;11.768;2024-03-06T11:43:55;9.71;71.11
69543;SHT31;56762;49.494;11.768;2024-03-06T11:46:40;9.85;70.32
69543;SHT31;56762;49.494;11.768;2024-03-06T11:49:15;9.97;70.68
69543;SHT31;56762;49.494;11.768;2024-03-06T11:51:44;10.12;70.57
69543;SHT31;56762;49.494;11.768;2024-03-06T11:54:14;10.16;68.95
69543;SHT31;56762;49.494;11.768;2024-03-06T11:56:44;10.22;68.81
69543;SHT31;56762;49.494;11.768;2024-03-06T11:59:14;10.23;67.77
69543;SHT31;56762;49.494;11.768;2024-03-06T12:01:43;10.16;67.76
69543;SHT31;56762;49.494;11.768;2024-03-06T12:04:13;10.25;68.11
69543;SHT31;56762;49.494;11.768;2024-03-06T12:06:41;10.19;67.72
69543;SHT31;56762;49.494;11.768;2024-03-06T12:09:09;10.29;68.46
69543;SHT31;56762;49.494;11.768;2024-03-06T12:11:39;10.22;67.44
69543;SHT31;56762;49.494;11.768;2024-03-06T12:14:13;10.33;68.27
69543;SHT31;56762;49.494;11.768;2024-03-06T12:16:44;10.45;68.87
69543;SHT31;56762;49.494;11.768;2024-03-06T12:19:12;10.43;68.84
69543;SHT31;56762;49.494;11.768;2024-03-06T12:21:40;10.47;68.13
69543;SHT31;56762;49.494;11.768;2024-03-06T12:24:08;10.47;68.32
69543;SHT31;56762;49.494;11.768;2024-03-06T12:26:37;10.43;67.99
69543;SHT31;56762;49.494;11.768;2024-03-06T12:29:07;10.39;67.04
69543;SHT31;56762;49.494;11.768;2024-03-06T12:31:36;10.37;67.18
69543;SHT31;56762;49.494;11.768;2024-03-06T12:34:05;10.30;67.26
69543;SHT31;56762;49.494;11.768;2024-03-06T12:36:33;10.29;68.35
69543;SHT31;56762;49.494;11.768;2024-03-06T12:39:03;10.32;68.41
69543;SHT31;56762;49.494;11.768;2024-03-06T12:41:40;10.32;67.97
69543;SHT31;56762;49.494;11.768;2024-03-06T12:44:09;10.30;67.13
69543;SHT31;56762;49.494;11.768;2024-03-06T12:46:37;10.36;67.06
69543;SHT31;56762;49.494;11.768;2024-03-06T12:49:05;10.42;67.53
69543;SHT31;56762;49.494;11.768;2024-03-06T12:51:33;10.40;66.79
69543;SHT31;56762;49.494;11.768;2024-03-06T12:54:01;10.36;66.73
69543;SHT31;56762;49.494;11.768;2024-03-06T12:56:30;10.37;66.96
69543;SHT31;56762;49.494;11.768;2024-03-06T12:58:57;10.37;66.82
69543;SHT31;56762;49.494;11.768;2024-03-06T13:01:27;10.47;66.75
69543;SHT31;56762;49.494;11.768;2024-03-06T13:03:55;10.50;65.77
69543;SHT31;56762;49.494;11.768;2024-03-06T13:06:32;10.60;66.22
69543;SHT31;56762;49.494;11.768;2024-03-06T13:09:00;10.61;66.27
69543;SHT31;56762;49.494;11.768;2024-03-06T13:11:28;10.66;65.26
69543;SHT31;56762;49.494;11.768;2024-03-06T13:13:55;10.70;65.72
69543;SHT31;56762;49.494;11.768;2024-03-06T13:16:24;10.68;64.01
69543;SHT31;56762;49.494;11.768;2024-03-06T13:18:54;10.60;64.10
69543;SHT31;56762;49.494;11.768;2024-03-06T13:21:24;10.60;64.10
69543;SHT31;56762;49.494;11.768;2024-03-06T13:23:52;10.47;63.94
69543;SHT31;56762;49.494;11.768;2024-03-06T13:26:20;10.45;64.44
69543;SHT31;56762;49.494;11.768;2024-03-06T13:28:48;10.39;64.40
69543;SHT31;56762;49.494;11.768;2024-03-06T13:31:17;10.42;65.67
69543;SHT31;56762;49.494;11.768;2024-03-06T13:33:45;10.46;64.79
69543;SHT31;56762;49.494;11.768;2024-03-06T13:36:14;10.35;64.40
69543;SHT31;56762;49.494;11.768;2024-03-06T13:38:42;10.35;64.82
69543;SHT31;56762;49.494;11.768;2024-03-06T13:41:10;10.29;64.93
69543;SHT31;56762;49.494;11.768;2024-03-06T13:43:38;10.29;65.20
69543;SHT31;56762;49.494;11.768;2024-03-06T13:46:06;10.28;65.28
69543;SHT31;56762;49.494;11.768;2024-03-06T13:48:34;10.32;65.33
69543;SHT31;56762;49.494;11.768;2024-03-06T13:51:03;10.28;65.36
69543;SHT31;56762;49.494;11.768;2024-03-06T13:53:33;10.28;64.79
69543;SHT31;56762;49.494;11.768;2024-03-06T13:56:01;10.26;64.35
69543;SHT31;56762;49.494;11.768;2024-03-06T13:58:29;10.32;64.85
69543;SHT31;56762;49.494;11.768;2024-03-06T14:00:57;10.28;64.14
69543;SHT31;56762;49.494;11.768;2024-03-06T14:03:25;10.18;64.29
69543;SHT31;56762;49.494;11.768;2024-03-06T14:05:52;10.19;64.81
69543;SHT31;56762;49.494;11.768;2024-03-06T14:08:20;10.15;65.20
69543;SHT31;56762;49.494;11.768;2024-03-06T14:11:31;10.06;65.27
69543;SHT31;56762;49.494;11.768;2024-03-06T14:14:28;10.12;66.00
69543;SHT31;56762;49.494;11.768;2024-03-06T14:16:56;10.01;65.17
69543;SHT31;56762;49.494;11.768;2024-03-06T14:19:26;9.89;65.92
69543;SHT31;56762;49.494;11.768;2024-03-06T14:21:53;9.89;66.78
69543;SHT31;56762;49.494;11.768;2024-03-06T14:24:23;9.88;66.11
69543;SHT31;56762;49.494;11.768;2024-03-06T14:26:52;9.82;66.27
69543;SHT31;56762;49.494;11.768;2024-03-06T14:29:20;9.84;66.10
69543;SHT31;56762;49.494;11.768;2024-03-06T14:31:48;9.87;65.89
69543;SHT31;56762;49.494;11.768;2024-03-06T14:34:16;9.92;66.01
69543;SHT31;56762;49.494;11.768;2024-03-06T14:36:44;9.92;65.78
69543;SHT31;56762;49.494;11.768;2024-03-06T14:39:12;9.94;66.19
69543;SHT31;56762;49.494;11.768;2024-03-06T14:41:41;9.95;65.64
69543;SHT31;56762;49.494;11.768;2024-03-06T14:44:11;9.95;65.51
69543;SHT31;56762;49.494;11.768;2024-03-06T14:46:40;9.98;65.67
69543;SHT31;56762;49.494;11.768;2024-03-06T14:49:08;10.01;66.35
69543;SHT31;56762;49.494;11.768;2024-03-06T14:51:36;10.03;65.57
69543;SHT31;56762;49.494;11.768;2024-03-06T14:54:04;10.01;65.76
69543;SHT31;56762;49.494;11.768;2024-03-06T14:56:31;10.01;65.69
69543;SHT31;56762;49.494;11.768;2024-03-06T14:58:59;10.06;65.33
69543;SHT31;56762;49.494;11.768;2024-03-06T15:01:29;10.02;64.60
69543;SHT31;56762;49.494;11.768;2024-03-06T15:03:57;10.05;65.74
69543;SHT31;56762;49.494;11.768;2024-03-06T15:06:25;10.08;65.30
69543;SHT31;56762;49.494;11.768;2024-03-06T15:08:52;10.09;64.16
69543;SHT31;56762;49.494;11.768;2024-03-06T15:11:21;10.05;63.60
69543;SHT31;56762;49.494;11.768;2024-03-06T15:13:50;10.08;63.84
69543;SHT31;56762;49.494;11.768;2024-03-06T15:16:18;10.09;64.20
69543;SHT31;56762;49.494;11.768;2024-03-06T15:18:47;10.09;64.96
69543;SHT31;56762;49.494;11.768;2024-03-06T15:21:15;10.10;64.13
69543;SHT31;56762;49.494;11.768;2024-03-06T15:23:43;10.09;65.17
69543;SHT31;56762;49.494;11.768;2024-03-06T15:26:11;10.10;65.13
69543;SHT31;56762;49.494;11.768;2024-03-06T15:28:39;10.09;65.73
69543;SHT31;56762;49.494;11.768;2024-03-06T15:31:07;10.08;64.86
69543;SHT31;56762;49.494;11.768;2024-03-06T15:33:34;10.03;64.17
69543;SHT31;56762;49.494;11.768;2024-03-06T15:36:05;9.98;64.39
69543;SHT31;56762;49.494;11.768;2024-03-06T15:38:33;10.02;63.96
69543;SHT31;56762;49.494;11.768;2024-03-06T15:41:00;9.97;64.79
69543;SHT31;56762;49.494;11.768;2024-03-06T15:43:29;9.92;64.46
69543;SHT31;56762;49.494;11.768;2024-03-06T15:45:56;9.88;64.61
69543;SHT31;56762;49.494;11.768;2024-03-06T15:48:24;9.81;63.86